Terminal Aerodrome Forecast
Issued by NWS Binghamton, NY

Current Version | Previous Version | Text Only | Print | Product List | Glossary On
Versions: 1 2 3 4 5 6 7 8 9 10 11 12 13 14 15 16 17
000
FTUS41 KBGM 211130
TAFAVP
TAF
KAVP 211130Z 2112/2212 VRB03KT P6SM SCT250
     FM211500 23007KT P6SM SCT050 SCT100
      TEMPO 2117/2121 BKN050 BKN100
     FM220000 21003KT P6SM SCT120
      TEMPO 2209/2212 5SM BR=

USA.gov is the U.S. government's official web portal to all federal, state and local government web resources and services.